Time;durP1;ratioP1;P1;durP2;ratioP2;P2;SDS_P1;SDS_P2;PMS_P1;PMS_P2;Temp;Humidity;BMP_temperature;BMP_pressure;BME280_temperature;BME280_humidity;BME280_pressure;Samples;Min_cycle;Max_cycle;Signal;HPM_P1;HPM_P2
2023/09/17 00:00:42;;;;;;;5.97;5.43;;;20.40;99.90;;;;;;5071688;28;20209;-74
2023/09/17 00:03:07;;;;;;;8.27;5.43;;;20.30;99.90;;;;;;5071526;28;20647;-74
2023/09/17 00:05:34;;;;;;;5.80;5.30;;;20.30;99.90;;;;;;5054891;28;20193;-73
2023/09/17 00:07:59;;;;;;;7.43;4.17;;;20.20;99.90;;;;;;5071662;28;20174;-74
2023/09/17 00:10:25;;;;;;;5.53;5.03;;;20.20;99.90;;;;;;5089826;28;20417;-74
2023/09/17 00:12:55;;;;;;;5.97;4.77;;;20.10;99.90;;;;;;5089638;28;20178;-74
2023/09/17 00:15:27;;;;;;;9.33;5.40;;;20.10;99.90;;;;;;5089583;28;20318;-75
2023/09/17 00:17:53;;;;;;;5.87;5.07;;;20.00;99.90;;;;;;5089708;28;20962;-75
2023/09/17 00:20:19;;;;;;;7.53;5.70;;;20.00;99.90;;;;;;5071801;28;20464;-74
2023/09/17 00:22:45;;;;;;;5.43;4.93;;;19.90;99.90;;;;;;5089661;28;20428;-74
2023/09/17 00:25:11;;;;;;;6.40;5.07;;;19.90;99.90;;;;;;5071487;28;20984;-74
2023/09/17 00:27:36;;;;;;;7.60;6.17;;;19.80;99.90;;;;;;5089670;28;20235;-74
2023/09/17 00:30:03;;;;;;;8.00;5.73;;;19.80;99.90;;;;;;5089339;28;20968;-74
2023/09/17 00:32:28;;;;;;;5.23;4.53;;;19.70;99.90;;;;;;5071358;28;20574;-74
2023/09/17 00:34:54;;;;;;;6.40;4.97;;;19.60;99.90;;;;;;5037805;28;20455;-74
2023/09/17 00:37:20;;;;;;;6.40;4.93;;;19.70;99.90;;;;;;5071352;28;20261;-74
2023/09/17 00:39:45;;;;;;;6.67;5.20;;;19.70;99.90;;;;;;5053736;28;20301;-74
2023/09/17 00:42:11;;;;;;;5.13;4.63;;;19.60;99.90;;;;;;5089139;28;20679;-74
2023/09/17 00:44:36;;;;;;;8.83;5.70;;;19.60;99.90;;;;;;5070479;28;20682;-73
2023/09/17 00:47:04;;;;;;;5.43;4.93;;;19.50;99.90;;;;;;5088704;28;20182;-73
2023/09/17 00:49:32;;;;;;;7.70;5.30;;;19.40;99.90;;;;;;5089023;28;20562;-74
2023/09/17 00:51:58;;;;;;;6.40;5.67;;;19.30;99.90;;;;;;5088726;28;20436;-74
2023/09/17 00:54:27;;;;;;;6.10;5.50;;;19.40;99.90;;;;;;5088871;28;20459;-74
2023/09/17 00:56:54;;;;;;;5.77;5.20;;;19.30;99.90;;;;;;5089155;28;20419;-74
2023/09/17 00:59:20;;;;;;;6.13;5.23;;;19.20;99.90;;;;;;5088901;28;20408;-74
2023/09/17 01:01:45;;;;;;;6.50;5.67;;;19.00;99.90;;;;;;5088495;28;20417;-73
2023/09/17 01:04:12;;;;;;;10.03;6.27;;;18.90;99.90;;;;;;5070218;28;20444;-74
2023/09/17 01:06:40;;;;;;;7.70;6.60;;;18.80;99.90;;;;;;5070214;28;20273;-74
2023/09/17 01:09:07;;;;;;;8.07;6.60;;;18.70;99.90;;;;;;5070524;28;20528;-74
2023/09/17 01:11:34;;;;;;;5.77;5.23;;;18.70;99.90;;;;;;5069986;28;20494;-74
2023/09/17 01:14:08;;;;;;;5.17;4.57;;;18.70;99.90;;;;;;5088146;28;20444;-74
2023/09/17 01:16:34;;;;;;;8.73;5.20;;;18.70;99.90;;;;;;5088262;28;21003;-74
2023/09/17 01:19:01;;;;;;;5.47;4.87;;;18.80;99.90;;;;;;5088257;28;20811;-74
2023/09/17 01:21:36;;;;;;;6.23;4.50;;;18.70;99.90;;;;;;5069953;28;20479;-74
2023/09/17 01:24:05;;;;;;;5.30;4.80;;;18.80;99.90;;;;;;5088447;28;20434;-73
2023/09/17 01:26:35;;;;;;;5.00;4.00;;;18.90;99.90;;;;;;5070068;28;20420;-74
2023/09/17 01:29:04;;;;;;;4.97;4.57;;;18.90;99.90;;;;;;5088479;28;20482;-74
2023/09/17 01:31:30;;;;;;;5.43;4.93;;;18.90;99.90;;;;;;5088131;28;20417;-74
2023/09/17 01:33:56;;;;;;;5.57;5.00;;;18.90;99.90;;;;;;5088549;28;20461;-74
2023/09/17 01:36:32;;;;;;;5.00;4.50;;;19.00;99.90;;;;;;5070426;28;20193;-73
2023/09/17 01:39:06;;;;;;;7.07;5.17;;;19.00;99.90;;;;;;5088558;28;20182;-74
2023/09/17 01:41:36;;;;;;;5.43;4.60;;;19.10;99.90;;;;;;5071139;28;20517;-74
2023/09/17 01:44:06;;;;;;;7.60;4.70;;;19.10;99.90;;;;;;5070110;28;20817;-74
2023/09/17 01:46:33;;;;;;;6.80;4.70;;;19.10;99.90;;;;;;5070201;28;20466;-74
2023/09/17 01:48:59;;;;;;;7.00;5.10;;;18.90;99.90;;;;;;5088613;28;20430;-74
2023/09/17 01:51:26;;;;;;;5.23;4.73;;;18.90;99.90;;;;;;5073399;28;20448;-74
2023/09/17 01:53:53;;;;;;;6.57;4.43;;;18.90;99.90;;;;;;5091819;28;20440;-73
2023/09/17 01:56:18;;;;;;;5.90;4.77;;;18.80;99.90;;;;;;5073875;28;20524;-74
2023/09/17 01:58:44;;;;;;;5.03;4.37;;;18.90;99.90;;;;;;5073888;28;20534;-73
2023/09/17 02:01:09;;;;;;;4.93;4.47;;;18.90;99.90;;;;;;5091938;28;20263;-74
2023/09/17 02:03:35;;;;;;;6.00;4.90;;;19.10;99.90;;;;;;5073376;28;20204;-74
2023/09/17 02:06:04;;;;;;;10.03;4.33;;;19.10;99.90;;;;;;5073624;28;20580;-73
2023/09/17 02:08:30;;;;;;;5.27;4.77;;;19.20;99.90;;;;;;5091800;28;20215;-74
2023/09/17 02:10:56;;;;;;;5.30;4.60;;;19.30;99.90;;;;;;5091756;28;20420;-73
2023/09/17 02:13:22;;;;;;;4.80;4.30;;;19.40;99.90;;;;;;5091727;28;20526;-72
2023/09/17 02:15:47;;;;;;;5.00;4.60;;;19.50;99.90;;;;;;5073612;28;20429;-73
2023/09/17 02:18:14;;;;;;;4.97;4.47;;;19.40;99.90;;;;;;5091782;28;20184;-74
2023/09/17 02:20:40;;;;;;;4.93;4.53;;;19.30;99.90;;;;;;5073584;28;20208;-74
2023/09/17 02:23:06;;;;;;;5.27;4.77;;;19.20;99.90;;;;;;5091635;28;20416;-74
2023/09/17 02:25:32;;;;;;;4.20;3.80;;;19.10;99.90;;;;;;5073227;28;20466;-73
2023/09/17 02:27:58;;;;;;;5.93;5.10;;;19.10;99.90;;;;;;5056541;28;20972;-72
2023/09/17 02:30:24;;;;;;;9.67;4.90;;;18.90;99.90;;;;;;5056718;28;20432;-73
2023/09/17 02:32:50;;;;;;;5.60;5.10;;;18.90;99.90;;;;;;5073395;28;20416;-74
2023/09/17 02:35:15;;;;;;;5.10;4.53;;;18.80;99.90;;;;;;5039804;28;20728;-74
2023/09/17 02:37:41;;;;;;;5.77;5.17;;;18.70;99.90;;;;;;5091358;28;20190;-74
2023/09/17 02:40:09;;;;;;;12.63;4.40;;;18.60;99.90;;;;;;5073050;28;20212;-74
2023/09/17 02:42:35;;;;;;;7.20;5.20;;;18.50;99.90;;;;;;5091206;28;20183;-74
2023/09/17 02:45:03;;;;;;;6.80;5.40;;;18.40;99.90;;;;;;5091371;28;20420;-74
2023/09/17 02:47:28;;;;;;;5.60;5.10;;;18.40;99.90;;;;;;5091386;28;20937;-74
2023/09/17 02:49:54;;;;;;;10.53;4.87;;;18.20;99.90;;;;;;5091252;28;20416;-74
2023/09/17 02:52:19;;;;;;;8.40;5.13;;;18.00;99.90;;;;;;5072700;28;20694;-74
2023/09/17 02:54:46;;;;;;;5.67;5.07;;;17.90;99.90;;;;;;5039762;28;20198;-74
2023/09/17 02:57:12;;;;;;;6.90;4.40;;;17.90;99.90;;;;;;5090734;28;20297;-74
2023/09/17 02:59:38;;;;;;;4.73;4.33;;;18.10;99.90;;;;;;5072500;28;20896;-75
2023/09/17 03:02:03;;;;;;;5.00;4.50;;;18.20;99.90;;;;;;5089668;28;20181;-73
2023/09/17 03:04:29;;;;;;;5.73;4.77;;;18.30;99.90;;;;;;5072403;28;20193;-74
2023/09/17 03:06:55;;;;;;;4.67;4.03;;;18.50;99.90;;;;;;5072073;28;20270;-74
2023/09/17 03:09:21;;;;;;;4.73;4.17;;;18.50;99.90;;;;;;5055481;28;20217;-73
2023/09/17 03:11:46;;;;;;;6.03;4.10;;;18.60;99.90;;;;;;5072097;28;20192;-73
2023/09/17 03:14:12;;;;;;;8.07;4.97;;;18.60;99.90;;;;;;5038863;28;20813;-74
2023/09/17 03:16:37;;;;;;;5.43;4.63;;;18.50;99.90;;;;;;5090665;28;20175;-73
2023/09/17 03:19:03;;;;;;;4.70;4.30;;;18.50;99.90;;;;;;5090771;28;20655;-75
2023/09/17 03:21:29;;;;;;;8.27;4.80;;;18.40;99.90;;;;;;5072930;28;20218;-73
2023/09/17 03:23:54;;;;;;;6.20;4.43;;;18.40;99.90;;;;;;5072641;28;20207;-74
2023/09/17 03:26:22;;;;;;;5.30;4.13;;;18.50;99.90;;;;;;5090650;28;20182;-74
2023/09/17 03:28:47;;;;;;;4.30;4.00;;;18.50;99.90;;;;;;5072589;28;20230;-73
2023/09/17 03:31:13;;;;;;;5.20;4.70;;;18.40;99.90;;;;;;5090431;28;20427;-72
2023/09/17 03:33:39;;;;;;;4.47;3.80;;;18.40;99.90;;;;;;5090453;28;20745;-74
2023/09/17 03:36:04;;;;;;;4.27;3.87;;;18.40;99.90;;;;;;5090528;28;20217;-74
2023/09/17 03:38:30;;;;;;;5.00;4.53;;;18.30;99.90;;;;;;5090534;28;20188;-74
2023/09/17 03:40:59;;;;;;;5.03;4.53;;;18.30;99.90;;;;;;5072322;28;20237;-74
2023/09/17 03:43:27;;;;;;;5.13;4.63;;;18.40;99.90;;;;;;5073306;28;20199;-74
2023/09/17 03:45:52;;;;;;;8.57;4.57;;;18.30;99.90;;;;;;5091075;28;20496;-74
2023/09/17 03:48:18;;;;;;;4.90;4.40;;;18.20;99.90;;;;;;5091115;28;20864;-73
2023/09/17 03:50:45;;;;;;;4.47;4.07;;;18.00;99.90;;;;;;5072764;28;20209;-74
2023/09/17 03:53:13;;;;;;;5.37;4.37;;;17.90;99.90;;;;;;5090836;28;20412;-74
2023/09/17 03:55:39;;;;;;;4.90;4.40;;;17.90;99.90;;;;;;5072079;28;20929;-74
2023/09/17 03:58:05;;;;;;;5.10;3.73;;;17.90;99.90;;;;;;5090646;28;20420;-73
2023/09/17 04:00:31;;;;;;;4.30;3.90;;;17.90;99.90;;;;;;5090352;28;20470;-73
2023/09/17 04:02:57;;;;;;;4.50;4.03;;;18.10;99.90;;;;;;5072418;28;20415;-74
2023/09/17 04:05:24;;;;;;;5.43;4.03;;;18.20;99.90;;;;;;5055536;28;20567;-74
2023/09/17 04:07:49;;;;;;;6.00;4.27;;;18.20;99.90;;;;;;5072374;28;20182;-74
2023/09/17 04:10:17;;;;;;;4.73;3.97;;;18.30;99.90;;;;;;5072182;28;20521;-74
2023/09/17 04:12:43;;;;;;;6.50;4.27;;;18.30;99.90;;;;;;5071881;28;20193;-74
2023/09/17 04:15:17;;;;;;;8.10;4.50;;;18.40;99.90;;;;;;5071890;28;20463;-74
2023/09/17 04:17:44;;;;;;;5.00;4.30;;;18.30;99.90;;;;;;5071338;28;20436;-74
2023/09/17 04:20:19;;;;;;;3.93;3.53;;;18.10;99.90;;;;;;5089445;28;20497;-73
2023/09/17 04:22:49;;;;;;;6.10;4.00;;;18.10;99.90;;;;;;5089403;28;20810;-74
2023/09/17 04:25:16;;;;;;;5.00;3.93;;;18.00;99.90;;;;;;5089375;28;20483;-74
2023/09/17 04:27:44;;;;;;;4.70;4.23;;;18.00;99.90;;;;;;5071358;28;20950;-73
2023/09/17 04:30:12;;;;;;;4.40;4.00;;;17.90;99.90;;;;;;5054690;28;20424;-76
2023/09/17 04:32:42;;;;;;;8.63;4.30;;;17.80;99.90;;;;;;5071191;28;20438;-74
2023/09/17 04:35:12;;;;;;;9.13;4.67;;;17.80;99.90;;;;;;5089246;28;20438;-73
2023/09/17 04:37:40;;;;;;;9.47;4.60;;;17.80;99.90;;;;;;5089455;28;20421;-73
2023/09/17 04:40:11;;;;;;;5.73;4.80;;;17.80;99.90;;;;;;5088360;28;21119;-73
2023/09/17 04:42:43;;;;;;;4.70;4.10;;;17.80;99.90;;;;;;5089406;28;20415;-73
2023/09/17 04:45:10;;;;;;;4.87;4.37;;;17.80;99.90;;;;;;5071258;28;20456;-73
2023/09/17 04:47:37;;;;;;;4.77;3.93;;;17.70;99.90;;;;;;5089409;28;20416;-74
2023/09/17 04:50:07;;;;;;;5.43;4.43;;;17.70;99.90;;;;;;5071223;28;20872;-74
2023/09/17 04:52:33;;;;;;;7.33;4.43;;;17.80;99.90;;;;;;5089100;28;20436;-74
2023/09/17 04:54:59;;;;;;;4.87;4.43;;;17.80;99.90;;;;;;5054026;28;20452;-74
2023/09/17 04:57:25;;;;;;;4.33;3.93;;;17.80;99.90;;;;;;5089021;28;20881;-73
2023/09/17 04:59:50;;;;;;;4.40;4.00;;;17.80;99.90;;;;;;5070929;28;20214;-73
2023/09/17 05:02:16;;;;;;;4.53;4.13;;;17.80;99.90;;;;;;5037512;28;20193;-73
2023/09/17 05:04:42;;;;;;;4.30;3.90;;;17.70;99.90;;;;;;5070922;28;20202;-74
2023/09/17 05:07:08;;;;;;;4.57;3.80;;;17.80;99.90;;;;;;5089050;28;20236;-74
2023/09/17 05:09:34;;;;;;;5.33;3.80;;;17.80;99.90;;;;;;5088986;28;20416;-74
2023/09/17 05:11:59;;;;;;;3.93;3.50;;;17.80;99.90;;;;;;5089137;28;20186;-74
2023/09/17 05:14:26;;;;;;;8.43;4.33;;;17.90;99.90;;;;;;5088998;28;20287;-73
2023/09/17 05:16:51;;;;;;;4.47;4.07;;;18.00;99.90;;;;;;5070722;28;20191;-74
2023/09/17 05:19:17;;;;;;;5.40;4.03;;;18.10;99.90;;;;;;5088951;28;20441;-73
2023/09/17 05:21:42;;;;;;;8.03;5.10;;;18.10;99.90;;;;;;5088752;28;20228;-74
2023/09/17 05:24:08;;;;;;;6.90;4.27;;;18.20;99.90;;;;;;5070683;28;20290;-74
2023/09/17 05:26:34;;;;;;;5.43;4.47;;;18.20;99.90;;;;;;5092667;28;20183;-73
2023/09/17 05:28:59;;;;;;;4.23;3.83;;;18.20;99.90;;;;;;5057758;28;20219;-73
2023/09/17 05:31:25;;;;;;;4.23;3.70;;;18.20;99.90;;;;;;5074418;28;20239;-73
2023/09/17 05:33:51;;;;;;;5.00;4.47;;;18.20;99.90;;;;;;5092442;28;20215;-74
2023/09/17 05:36:17;;;;;;;4.93;3.60;;;18.10;99.90;;;;;;5092640;28;20790;-74
2023/09/17 05:38:43;;;;;;;4.30;4.00;;;18.10;99.90;;;;;;5074352;28;20525;-73
2023/09/17 05:41:11;;;;;;;4.60;4.20;;;18.10;99.90;;;;;;5092439;28;20213;-73
2023/09/17 05:43:38;;;;;;;6.47;4.00;;;18.20;99.90;;;;;;5092337;28;20483;-74
2023/09/17 05:46:04;;;;;;;4.73;4.20;;;18.20;99.90;;;;;;5074135;28;20420;-74
2023/09/17 05:48:30;;;;;;;8.43;3.93;;;18.20;99.90;;;;;;5057414;28;20488;-74
2023/09/17 05:50:56;;;;;;;6.53;4.00;;;18.30;99.90;;;;;;5092259;28;20508;-74
2023/09/17 05:53:21;;;;;;;4.37;3.97;;;18.30;99.90;;;;;;5074001;28;20203;-73
2023/09/17 05:55:47;;;;;;;6.93;4.17;;;18.40;99.90;;;;;;5057189;28;20280;-73
2023/09/17 05:58:13;;;;;;;6.00;4.10;;;18.40;99.90;;;;;;5092378;28;20230;-74
2023/09/17 06:00:38;;;;;;;5.80;5.00;;;18.50;99.90;;;;;;5073977;28;20221;-74
2023/09/17 06:03:04;;;;;;;7.53;5.37;;;18.50;99.90;;;;;;5091971;28;20218;-73
2023/09/17 06:05:30;;;;;;;9.17;4.27;;;18.60;99.90;;;;;;5073948;28;20428;-73
2023/09/17 06:07:56;;;;;;;6.43;5.23;;;18.60;99.90;;;;;;5092261;28;20415;-73
2023/09/17 06:10:22;;;;;;;4.97;4.50;;;18.60;99.90;;;;;;5073741;28;20645;-72
2023/09/17 06:12:47;;;;;;;5.23;4.70;;;18.70;99.90;;;;;;5073835;28;20189;-73
2023/09/17 06:15:13;;;;;;;4.73;4.33;;;18.70;99.90;;;;;;5091900;28;20441;-74
2023/09/17 06:17:40;;;;;;;7.60;4.27;;;18.70;99.90;;;;;;5073513;28;20323;-73
2023/09/17 06:20:06;;;;;;;5.10;4.60;;;18.70;99.90;;;;;;5091922;28;20675;-73
2023/09/17 06:22:32;;;;;;;9.17;4.57;;;18.70;99.90;;;;;;5092081;28;20427;-73
2023/09/17 06:24:57;;;;;;;5.70;4.60;;;18.70;99.90;;;;;;5092063;28;20450;-73
2023/09/17 06:27:23;;;;;;;4.90;4.00;;;18.70;99.90;;;;;;5091797;28;20427;-73
2023/09/17 06:29:49;;;;;;;7.30;4.90;;;18.70;99.90;;;;;;5091352;28;20193;-73
2023/09/17 06:32:15;;;;;;;6.40;4.13;;;18.80;99.90;;;;;;5091633;28;20182;-73
2023/09/17 06:34:41;;;;;;;5.90;5.30;;;18.70;99.90;;;;;;5091573;28;20852;-73
2023/09/17 06:37:06;;;;;;;5.70;4.33;;;18.80;99.90;;;;;;5090157;28;20440;-73
2023/09/17 06:39:32;;;;;;;5.93;5.33;;;18.80;99.90;;;;;;5073268;28;20558;-73
2023/09/17 06:41:58;;;;;;;6.13;4.77;;;18.90;99.90;;;;;;5091150;28;20276;-72
2023/09/17 06:44:24;;;;;;;9.97;5.07;;;19.00;99.90;;;;;;5091296;28;20212;-73
2023/09/17 06:46:50;;;;;;;5.70;4.80;;;19.00;99.90;;;;;;5091242;28;20194;-73
2023/09/17 06:49:15;;;;;;;7.80;5.53;;;19.10;99.90;;;;;;5091221;28;20214;-73
2023/09/17 06:51:41;;;;;;;5.00;4.50;;;19.20;99.90;;;;;;5090940;28;20926;-73
2023/09/17 06:54:07;;;;;;;6.27;4.90;;;19.30;99.90;;;;;;5056519;28;20672;-73
2023/09/17 06:56:32;;;;;;;8.70;5.50;;;19.30;99.90;;;;;;5072917;28;20192;-73
2023/09/17 06:58:58;;;;;;;8.90;5.00;;;19.30;99.90;;;;;;5072831;28;20222;-72
2023/09/17 07:01:24;;;;;;;5.27;4.77;;;19.40;99.90;;;;;;5072749;28;20748;-73
2023/09/17 07:03:49;;;;;;;7.23;4.93;;;19.50;99.90;;;;;;5071231;28;20592;-73
2023/09/17 07:06:16;;;;;;;5.20;4.70;;;19.50;99.90;;;;;;5089676;28;20263;-73
2023/09/17 07:08:41;;;;;;;6.00;4.17;;;19.50;99.90;;;;;;5089681;28;20228;-73
2023/09/17 07:11:07;;;;;;;7.53;4.70;;;19.60;99.90;;;;;;5071538;28;20416;-74
2023/09/17 07:13:33;;;;;;;5.00;4.50;;;19.60;99.90;;;;;;5071121;28;20208;-73
2023/09/17 07:15:58;;;;;;;5.30;4.80;;;19.80;99.90;;;;;;5089274;28;20240;-72
2023/09/17 07:18:26;;;;;;;3.90;3.60;;;19.90;99.90;;;;;;5070889;28;20187;-73
2023/09/17 07:20:51;;;;;;;10.00;4.70;;;20.00;99.90;;;;;;5071409;28;20208;-73
2023/09/17 07:23:17;;;;;;;4.73;4.33;;;20.00;99.90;;;;;;5070560;28;20436;-72
2023/09/17 07:25:45;;;;;;;7.43;4.63;;;20.00;99.90;;;;;;5089098;28;20181;-73
2023/09/17 07:28:11;;;;;;;6.63;4.80;;;20.10;99.90;;;;;;5088984;28;20224;-73
2023/09/17 07:30:37;;;;;;;4.77;3.73;;;20.20;99.90;;;;;;5088914;28;20790;-75
2023/09/17 07:33:04;;;;;;;5.77;4.37;;;20.40;99.90;;;;;;5088905;28;20265;-74
2023/09/17 07:35:30;;;;;;;4.63;4.23;;;20.60;99.90;;;;;;5070768;28;20208;-74
2023/09/17 07:37:55;;;;;;;4.33;3.73;;;20.80;99.90;;;;;;5070777;28;20842;-74
2023/09/17 07:40:21;;;;;;;4.80;3.60;;;21.10;99.90;;;;;;5088595;28;20461;-74
2023/09/17 07:42:47;;;;;;;7.90;3.77;;;21.30;99.90;;;;;;5070268;28;20685;-73
2023/09/17 07:45:13;;;;;;;5.87;3.37;;;21.40;99.90;;;;;;5088816;28;20952;-73
2023/09/17 07:47:39;;;;;;;5.20;4.27;;;21.60;99.90;;;;;;5070392;28;20193;-73
2023/09/17 07:50:05;;;;;;;6.73;4.60;;;21.70;99.90;;;;;;5088515;28;20190;-73
2023/09/17 07:52:32;;;;;;;3.80;3.37;;;21.80;99.90;;;;;;5069967;28;20444;-73
2023/09/17 07:54:57;;;;;;;4.60;4.10;;;21.90;99.90;;;;;;5088123;28;20448;-73
2023/09/17 07:57:23;;;;;;;5.60;3.83;;;22.00;99.90;;;;;;5088469;28;20422;-73
2023/09/17 07:59:49;;;;;;;4.50;3.63;;;22.20;99.90;;;;;;5088411;28;20213;-74
2023/09/17 08:02:15;;;;;;;5.63;3.93;;;22.30;99.90;;;;;;5070338;28;20182;-74
2023/09/17 08:04:40;;;;;;;5.87;4.37;;;22.40;99.90;;;;;;5069762;28;20953;-74
2023/09/17 08:07:06;;;;;;;6.03;3.83;;;22.50;99.90;;;;;;5088370;28;20419;-74
2023/09/17 08:09:32;;;;;;;6.03;4.60;;;22.50;99.90;;;;;;5088273;28;20622;-74
2023/09/17 08:11:58;;;;;;;4.50;4.10;;;22.60;99.90;;;;;;5088156;28;20183;-74
2023/09/17 08:14:25;;;;;;;6.00;4.43;;;22.50;99.90;;;;;;5069865;28;20237;-73
2023/09/17 08:16:51;;;;;;;4.40;3.73;;;22.60;99.90;;;;;;5087741;28;20445;-74
2023/09/17 08:19:17;;;;;;;4.90;4.00;;;22.60;99.90;;;;;;5087822;28;20862;-73
2023/09/17 08:21:43;;;;;;;9.43;4.53;;;22.70;99.90;;;;;;5087862;28;20473;-74
2023/09/17 08:24:10;;;;;;;3.97;3.63;;;22.60;99.90;;;;;;5088014;28;20606;-74
2023/09/17 08:26:35;;;;;;;4.77;4.27;;;22.70;99.90;;;;;;5088045;28;20433;-74
2023/09/17 08:29:01;;;;;;;6.03;4.30;;;22.80;99.90;;;;;;5088051;28;20409;-74
2023/09/17 08:31:28;;;;;;;6.47;4.07;;;22.80;99.90;;;;;;5070075;28;20529;-74
2023/09/17 08:33:53;;;;;;;6.67;4.37;;;23.00;99.90;;;;;;5087828;28;20202;-74
2023/09/17 08:36:21;;;;;;;5.20;4.30;;;23.10;99.90;;;;;;5069735;28;20925;-73
2023/09/17 08:38:51;;;;;;;6.20;3.30;;;23.10;99.90;;;;;;5069617;28;20205;-73
2023/09/17 08:41:19;;;;;;;3.70;3.40;;;23.30;99.90;;;;;;5087406;28;20456;-74
2023/09/17 08:43:46;;;;;;;6.03;4.30;;;23.40;99.90;;;;;;5052405;28;20453;-74
2023/09/17 08:46:12;;;;;;;4.43;3.70;;;23.40;99.90;;;;;;5069046;28;20475;-73
2023/09/17 08:48:38;;;;;;;6.03;4.77;;;23.50;99.90;;;;;;5087249;28;20426;-74
2023/09/17 08:51:05;;;;;;;4.20;3.70;;;23.60;99.90;;;;;;5069143;28;20501;-75
2023/09/17 08:53:38;;;;;;;8.07;4.63;;;23.70;99.90;;;;;;5069259;28;20459;-74
2023/09/17 08:56:06;;;;;;;8.20;3.80;;;23.80;99.90;;;;;;5087455;28;20441;-74
2023/09/17 08:58:40;;;;;;;5.90;3.73;;;24.00;99.90;;;;;;5087053;28;20423;-74
2023/09/17 09:01:09;;;;;;;5.17;3.50;;;24.10;99.90;;;;;;5071755;28;20610;-73
2023/09/17 09:03:35;;;;;;;5.60;3.60;;;24.20;99.90;;;;;;5091523;28;20550;-74
2023/09/17 09:06:03;;;;;;;7.83;3.00;;;24.50;99.90;;;;;;5091515;28;20417;-74
2023/09/17 09:08:31;;;;;;;5.87;3.57;;;24.90;99.90;;;;;;5091468;28;20433;-73
2023/09/17 09:10:56;;;;;;;3.70;3.10;;;25.20;99.90;;;;;;5091548;28;20475;-74
2023/09/17 09:13:22;;;;;;;4.20;3.40;;;25.60;99.90;;;;;;5091495;28;20463;-73
2023/09/17 09:15:48;;;;;;;9.17;3.50;;;26.00;99.90;;;;;;5091566;28;20596;-73
2023/09/17 09:18:14;;;;;;;16.30;3.40;;;26.40;99.90;;;;;;5091325;28;20187;-74
2023/09/17 09:20:41;;;;;;;12.17;2.93;;;26.70;99.90;;;;;;5091371;28;20651;-73
2023/09/17 09:23:07;;;;;;;6.17;3.30;;;27.00;99.90;;;;;;5091179;28;20415;-75
2023/09/17 09:25:34;;;;;;;7.53;2.87;;;27.30;99.90;;;;;;5091194;28;20419;-74
2023/09/17 09:28:00;;;;;;;7.70;2.90;;;27.80;99.90;;;;;;5072953;28;20423;-74
2023/09/17 09:30:27;;;;;;;4.33;2.50;;;28.10;99.90;;;;;;5072653;28;20455;-74
2023/09/17 09:32:53;;;;;;;7.03;2.77;;;28.50;99.90;;;;;;5091114;28;20412;-74
2023/09/17 09:35:19;;;;;;;5.37;2.83;;;28.80;99.90;;;;;;5090965;28;20440;-73
2023/09/17 09:37:45;;;;;;;9.70;3.67;;;29.20;99.90;;;;;;5091333;28;20187;-73
2023/09/17 09:40:13;;;;;;;7.87;2.57;;;29.70;99.90;;;;;;5090867;28;20860;-74
2023/09/17 09:42:39;;;;;;;8.97;2.80;;;29.90;99.90;;;;;;5090706;28;20416;-75
2023/09/17 09:45:04;;;;;;;7.43;2.90;;;29.90;99.90;;;;;;5090193;28;20432;-73
2023/09/17 09:47:31;;;;;;;7.23;2.40;;;29.80;99.90;;;;;;5089933;28;20265;-74
2023/09/17 09:49:57;;;;;;;7.53;2.53;;;30.00;99.90;;;;;;5072529;28;20412;-74
2023/09/17 09:52:24;;;;;;;5.93;2.20;;;30.40;99.90;;;;;;5090203;28;20483;-74
2023/09/17 09:54:49;;;;;;;8.03;2.83;;;30.40;99.90;;;;;;5071778;28;20208;-74
2023/09/17 09:57:18;;;;;;;3.67;2.23;;;30.80;99.90;;;;;;5090284;28;20420;-74
2023/09/17 09:59:45;;;;;;;7.27;3.00;;;31.10;99.80;;;;;;5055189;28;20278;-74
2023/09/17 10:02:12;;;;;;;6.50;2.63;;;31.30;99.90;;;;;;5090135;28;20444;-74
2023/09/17 10:04:38;;;;;;;8.37;2.90;;;31.40;99.90;;;;;;5090153;28;20435;-72
2023/09/17 10:07:05;;;;;;;8.53;2.67;;;31.60;99.90;;;;;;5090316;28;20413;-72
2023/09/17 10:09:31;;;;;;;6.03;2.13;;;31.10;99.90;;;;;;5090158;28;20420;-72
2023/09/17 10:11:58;;;;;;;12.07;2.97;;;30.60;99.90;;;;;;5089908;28;20428;-72
2023/09/17 10:14:26;;;;;;;8.23;2.53;;;30.10;98.10;;;;;;5090526;28;20484;-73
2023/09/17 10:16:53;;;;;;;7.20;2.53;;;29.60;97.10;;;;;;5090684;28;20420;-72
2023/09/17 10:19:21;;;;;;;8.70;2.70;;;29.60;97.70;;;;;;5091028;28;20474;-74
2023/09/17 10:21:48;;;;;;;9.63;3.00;;;29.40;97.60;;;;;;5072375;28;20554;-73
2023/09/17 10:24:17;;;;;;;7.30;2.93;;;29.20;98.00;;;;;;5072525;28;21000;-72
2023/09/17 10:26:44;;;;;;;9.93;3.10;;;29.10;98.30;;;;;;5072573;28;20498;-71
2023/09/17 10:29:12;;;;;;;13.10;3.33;;;29.00;98.30;;;;;;5090659;28;20827;-72
2023/09/17 10:31:39;;;;;;;6.20;3.07;;;28.90;97.20;;;;;;5090998;28;20862;-72
2023/09/17 10:34:05;;;;;;;10.90;2.87;;;28.90;97.30;;;;;;5072436;28;20751;-73
2023/09/17 10:36:33;;;;;;;9.90;2.70;;;29.00;95.60;;;;;;5090433;28;20422;-70
2023/09/17 10:38:59;;;;;;;6.97;2.50;;;29.00;94.40;;;;;;5071867;28;20435;-71
2023/09/17 10:41:28;;;;;;;13.20;2.43;;;29.00;95.70;;;;;;5089550;28;20517;-69
2023/09/17 10:43:57;;;;;;;3.90;2.30;;;29.00;96.10;;;;;;5089527;28;20451;-71
2023/09/17 10:46:24;;;;;;;11.03;3.00;;;29.00;95.80;;;;;;5090026;28;20795;-70
2023/09/17 10:48:53;;;;;;;5.77;2.80;;;29.00;96.40;;;;;;5089640;28;20409;-72
2023/09/17 10:51:19;;;;;;;9.30;2.47;;;29.00;96.20;;;;;;5089592;28;20544;-71
2023/09/17 10:53:45;;;;;;;6.97;2.53;;;29.00;95.30;;;;;;5070878;28;20491;-70
2023/09/17 10:56:13;;;;;;;13.47;3.37;;;29.00;95.00;;;;;;5089379;28;20452;-71
2023/09/17 10:59:00;;;;;;;7.03;2.60;;;28.90;94.90;;;;;;5054284;28;20239;-71
2023/09/17 11:01:32;;;;;;;6.70;1.90;;;28.90;95.50;;;;;;5089077;28;20552;-71
2023/09/17 11:04:10;;;;;;;6.90;2.73;;;28.90;95.80;;;;;;5071106;28;20903;-70
2023/09/17 11:06:37;;;;;;;8.67;3.03;;;28.90;95.70;;;;;;5089112;28;20423;-70
2023/09/17 11:09:06;;;;;;;6.00;3.03;;;28.90;95.90;;;;;;5088863;28;20924;-72
2023/09/17 11:11:33;;;;;;;6.97;2.90;;;28.90;95.70;;;;;;5088894;28;20503;-71
2023/09/17 11:13:58;;;;;;;4.00;2.20;;;28.90;95.30;;;;;;5088957;28;20451;-71
2023/09/17 11:16:26;;;;;;;7.53;1.90;;;29.00;95.10;;;;;;5070688;28;20434;-71
2023/09/17 11:19:16;;;;;;;9.60;3.17;;;29.00;95.20;;;;;;5089152;28;20179;-70
2023/09/17 11:21:47;;;;;;;4.60;2.40;;;29.00;95.80;;;;;;5088630;28;20456;-69
2023/09/17 11:24:13;;;;;;;5.20;2.20;;;28.90;95.50;;;;;;5088024;28;20807;-70
2023/09/17 11:26:41;;;;;;;3.40;2.13;;;29.00;95.60;;;;;;5088056;28;20502;-70
2023/09/17 11:29:08;;;;;;;4.80;2.20;;;29.10;97.00;;;;;;5088092;28;20175;-70
2023/09/17 11:31:38;;;;;;;4.27;2.30;;;29.10;95.70;;;;;;5088326;28;20486;-70
2023/09/17 11:34:11;;;;;;;7.70;2.97;;;29.20;95.20;;;;;;5088411;28;20436;-70
2023/09/17 11:36:36;;;;;;;10.40;2.40;;;29.20;95.60;;;;;;5053073;28;20421;-70
2023/09/17 11:39:06;;;;;;;6.83;2.60;;;29.10;95.90;;;;;;5069747;28;20425;-70
2023/09/17 11:41:35;;;;;;;8.50;2.57;;;29.00;94.40;;;;;;5087655;28;20695;-70
2023/09/17 11:44:03;;;;;;;5.23;2.30;;;29.10;96.30;;;;;;5087704;28;20432;-70
2023/09/17 11:46:30;;;;;;;7.00;2.20;;;29.20;95.60;;;;;;5069236;28;20427;-69
2023/09/17 11:48:56;;;;;;;5.43;2.27;;;29.20;95.10;;;;;;5088058;28;20413;-70
2023/09/17 11:51:24;;;;;;;4.43;2.00;;;29.10;95.70;;;;;;5070052;28;20467;-70
2023/09/17 11:54:00;;;;;;;11.50;2.20;;;29.00;95.00;;;;;;5088226;28;20229;-70
2023/09/17 11:56:32;;;;;;;6.73;2.20;;;28.90;95.60;;;;;;5088196;28;20842;-70
2023/09/17 11:59:02;;;;;;;4.40;1.83;;;28.90;95.90;;;;;;5069655;28;20424;-71
2023/09/17 12:01:34;;;;;;;5.17;1.90;;;28.90;91.90;;;;;;5069881;28;20827;-70
2023/09/17 12:04:03;;;;;;;5.33;1.70;;;28.80;92.70;;;;;;5088159;28;20456;-70
2023/09/17 12:06:29;;;;;;;3.47;1.87;;;29.00;93.00;;;;;;5088550;28;20851;-71
2023/09/17 12:09:05;;;;;;;4.13;1.70;;;29.10;92.90;;;;;;5088506;28;20431;-70
2023/09/17 12:11:31;;;;;;;6.53;2.03;;;29.10;92.40;;;;;;5088176;28;20416;-70
2023/09/17 12:13:59;;;;;;;4.50;2.03;;;29.10;90.30;;;;;;5088044;28;20451;-70
2023/09/17 12:16:26;;;;;;;4.63;1.50;;;29.20;90.70;;;;;;5069882;28;20189;-70
2023/09/17 12:18:53;;;;;;;8.53;1.90;;;29.10;90.90;;;;;;5088154;28;20412;-70
2023/09/17 12:21:23;;;;;;;5.07;1.97;;;29.20;90.80;;;;;;5087934;28;20923;-70
2023/09/17 12:24:04;;;;;;;4.13;1.43;;;29.30;89.80;;;;;;5087936;28;20444;-70
2023/09/17 12:26:56;;;;;;;12.70;3.03;;;29.40;89.90;;;;;;5088002;28;20458;-70
2023/09/17 12:29:22;;;;;;;6.30;1.97;;;29.40;91.20;;;;;;5069700;28;20493;-69
2023/09/17 12:31:49;;;;;;;4.97;1.47;;;29.50;90.60;;;;;;5087885;28;20936;-70
2023/09/17 12:34:15;;;;;;;4.70;1.83;;;29.40;91.50;;;;;;5087806;28;20210;-69
2023/09/17 12:36:42;;;;;;;5.50;1.80;;;29.40;91.10;;;;;;5088119;28;20921;-69
2023/09/17 12:39:08;;;;;;;3.63;2.00;;;29.50;92.00;;;;;;5069654;28;20182;-70
2023/09/17 12:41:33;;;;;;;5.60;2.10;;;29.50;92.50;;;;;;5088017;28;20980;-70
2023/09/17 12:43:59;;;;;;;3.73;1.30;;;29.60;92.20;;;;;;5088022;28;20210;-69